EZY2986 LIRF-LSZH
Flight info
| Callsign | EZY2986 |
|---|---|
| Flight time | 1h 9m |
| Altitude | 38000 |
| Route | SOVAN DCT AMTEL DCT PEPAG DCT CANNE Z651 DETRI/N0406F300 Z651 KELIP |
| Aircraft | A319/M-SDE3FGHIRWY/LB1 |
Departure
| Time | 2026-05-07 06:31 |
|---|---|
| Airport | Rome–Fiumicino Leonardo da Vinci International Airport (LIRF) |
Arrival
| Time | 2026-05-07 07:40 |
|---|---|
| Airport | Zürich Airport (LSZH) |
| Time | Latitude | Longitude | Altitude | Speed | Heading |
|---|---|---|---|---|---|
| 2026-05-07 06:16 | 41.79706 | 12.25842 | 14 ft | 0 kts | 115° |
| 2026-05-07 06:22 | 41.79713 | 12.25822 | 16 ft | 3 kts | 115° |
| 2026-05-07 06:22 | 41.79721 | 12.25800 | 15 ft | 3 kts | 105° |
| 2026-05-07 06:23 | 41.79722 | 12.25774 | 14 ft | 3 kts | 60° |
| 2026-05-07 06:23 | 41.79709 | 12.25755 | 16 ft | 3 kts | 16° |
| 2026-05-07 06:23 | 41.79698 | 12.25753 | 15 ft | 0 kts | 24° |
| 2026-05-07 06:25 | 41.79714 | 12.25765 | 14 ft | 13 kts | 31° |
| 2026-05-07 06:25 | 41.79830 | 12.25832 | 14 ft | 18 kts | 359° |
| 2026-05-07 06:25 | 41.79947 | 12.25869 | 16 ft | 18 kts | 24° |
| 2026-05-07 06:25 | 41.80063 | 12.25940 | 14 ft | 19 kts | 25° |
| 2026-05-07 06:26 | 41.80185 | 12.26015 | 15 ft | 20 kts | 24° |
| 2026-05-07 06:26 | 41.80310 | 12.26093 | 16 ft | 20 kts | 25° |
| 2026-05-07 06:26 | 41.80412 | 12.26155 | 16 ft | 16 kts | 23° |
| 2026-05-07 06:26 | 41.80515 | 12.26203 | 16 ft | 15 kts | 41° |
| 2026-05-07 06:27 | 41.80555 | 12.26335 | 16 ft | 17 kts | 71° |
| 2026-05-07 06:27 | 41.80600 | 12.26497 | 16 ft | 19 kts | 68° |
| 2026-05-07 06:27 | 41.80648 | 12.26668 | 17 ft | 20 kts | 71° |
| 2026-05-07 06:27 | 41.80697 | 12.26849 | 15 ft | 21 kts | 70° |
| 2026-05-07 06:28 | 41.80757 | 12.27032 | 13 ft | 21 kts | 43° |
| 2026-05-07 06:28 | 41.80884 | 12.27004 | 13 ft | 10 kts | 341° |
| 2026-05-07 06:28 | 41.80887 | 12.27003 | 13 ft | 0 kts | 341° |
| 2026-05-07 06:29 | 41.80895 | 12.26999 | 15 ft | 7 kts | 340° |
| 2026-05-07 06:29 | 41.80953 | 12.26908 | 13 ft | 16 kts | 250° |
| 2026-05-07 06:29 | 41.80930 | 12.26823 | 13 ft | 0 kts | 253° |
| 2026-05-07 06:30 | 41.80928 | 12.26815 | 13 ft | 2 kts | 250° |
| 2026-05-07 06:30 | 41.80885 | 12.26653 | 14 ft | 58 kts | 250° |
| 2026-05-07 06:30 | 41.80630 | 12.25733 | 17 ft | 150 kts | 249° |
| 2026-05-07 06:31 | 41.80212 | 12.24229 | 421 ft | 181 kts | 249° |
| 2026-05-07 06:31 | 41.79776 | 12.22659 | 1420 ft | 183 kts | 247° |
| 2026-05-07 06:31 | 41.79380 | 12.20908 | 2140 ft | 209 kts | 257° |
| 2026-05-07 06:31 | 41.79271 | 12.18842 | 2912 ft | 237 kts | 271° |
| 2026-05-07 06:32 | 41.79586 | 12.16566 | 3813 ft | 257 kts | 288° |
| 2026-05-07 06:32 | 41.80382 | 12.14386 | 5055 ft | 264 kts | 303° |
| 2026-05-07 06:32 | 41.81608 | 12.12530 | 6340 ft | 270 kts | 318° |
| 2026-05-07 06:32 | 41.83208 | 12.11168 | 7369 ft | 276 kts | 334° |
| 2026-05-07 06:33 | 41.84981 | 12.10132 | 8463 ft | 280 kts | 334° |
| 2026-05-07 06:33 | 41.86772 | 12.09077 | 9547 ft | 283 kts | 333° |
| 2026-05-07 06:33 | 41.88591 | 12.08002 | 10461 ft | 293 kts | 333° |
| 2026-05-07 06:33 | 41.90506 | 12.06869 | 10937 ft | 315 kts | 333° |
| 2026-05-07 06:34 | 41.92551 | 12.05657 | 11710 ft | 325 kts | 333° |
| 2026-05-07 06:34 | 41.94639 | 12.04419 | 12608 ft | 331 kts | 333° |
| 2026-05-07 06:34 | 41.96767 | 12.03159 | 13536 ft | 337 kts | 332° |
| 2026-05-07 06:34 | 41.98924 | 12.01879 | 14382 ft | 342 kts | 332° |
| 2026-05-07 06:35 | 42.01121 | 12.00575 | 15162 ft | 348 kts | 332° |
| 2026-05-07 06:35 | 42.03353 | 11.99248 | 15941 ft | 353 kts | 332° |
| 2026-05-07 06:35 | 42.05616 | 11.97898 | 16721 ft | 359 kts | 332° |
| 2026-05-07 06:35 | 42.07906 | 11.96529 | 17477 ft | 365 kts | 332° |
| 2026-05-07 06:36 | 42.10245 | 11.95133 | 18215 ft | 370 kts | 332° |
| 2026-05-07 06:36 | 42.12618 | 11.93718 | 18851 ft | 375 kts | 332° |
| 2026-05-07 06:36 | 42.15016 | 11.92288 | 19503 ft | 379 kts | 331° |
| 2026-05-07 06:36 | 42.17438 | 11.90839 | 20155 ft | 382 kts | 331° |
| 2026-05-07 06:37 | 42.19878 | 11.89374 | 20827 ft | 386 kts | 331° |
| 2026-05-07 06:37 | 42.22339 | 11.87893 | 21516 ft | 389 kts | 330° |
| 2026-05-07 06:37 | 42.24816 | 11.86396 | 22212 ft | 392 kts | 330° |
| 2026-05-07 06:37 | 42.27312 | 11.84883 | 22893 ft | 395 kts | 330° |
| 2026-05-07 06:38 | 42.29831 | 11.83355 | 23564 ft | 399 kts | 330° |
| 2026-05-07 06:38 | 42.32372 | 11.81813 | 24129 ft | 402 kts | 330° |
| 2026-05-07 06:38 | 42.34931 | 11.80264 | 24674 ft | 405 kts | 330° |
| 2026-05-07 06:38 | 42.37514 | 11.78702 | 25206 ft | 408 kts | 330° |
| 2026-05-07 06:39 | 42.40116 | 11.77126 | 25732 ft | 411 kts | 329° |
| 2026-05-07 06:39 | 42.42737 | 11.75537 | 26254 ft | 415 kts | 329° |
| 2026-05-07 06:39 | 42.45378 | 11.73934 | 26761 ft | 418 kts | 329° |
| 2026-05-07 06:39 | 42.48040 | 11.72319 | 27256 ft | 421 kts | 329° |
| 2026-05-07 06:40 | 42.50727 | 11.70693 | 27749 ft | 424 kts | 329° |
| 2026-05-07 06:40 | 42.53433 | 11.69052 | 28249 ft | 428 kts | 329° |
| 2026-05-07 06:40 | 42.56157 | 11.67393 | 28739 ft | 431 kts | 329° |
| 2026-05-07 06:40 | 42.58903 | 11.65717 | 29227 ft | 434 kts | 329° |
| 2026-05-07 06:41 | 42.61668 | 11.64028 | 29702 ft | 437 kts | 329° |
| 2026-05-07 06:41 | 42.64450 | 11.62329 | 30157 ft | 441 kts | 329° |
| 2026-05-07 06:41 | 42.67253 | 11.60613 | 30551 ft | 443 kts | 329° |
| 2026-05-07 06:41 | 42.70057 | 11.58895 | 30735 ft | 441 kts | 329° |
| 2026-05-07 06:42 | 42.72845 | 11.57188 | 30860 ft | 438 kts | 329° |
| 2026-05-07 06:42 | 42.75618 | 11.55492 | 30989 ft | 436 kts | 328° |
| 2026-05-07 06:42 | 42.78380 | 11.53801 | 31119 ft | 434 kts | 328° |
| 2026-05-07 06:42 | 42.81133 | 11.52111 | 31241 ft | 433 kts | 328° |
| 2026-05-07 06:43 | 42.83872 | 11.50426 | 31381 ft | 431 kts | 328° |
| 2026-05-07 06:43 | 42.86607 | 11.48739 | 31504 ft | 435 kts | 328° |
| 2026-05-07 06:43 | 42.89388 | 11.47013 | 31642 ft | 443 kts | 328° |
| 2026-05-07 06:43 | 42.92212 | 11.45260 | 32004 ft | 446 kts | 328° |
| 2026-05-07 06:44 | 42.95036 | 11.43514 | 32508 ft | 446 kts | 328° |
| 2026-05-07 06:44 | 42.97860 | 11.41773 | 33045 ft | 445 kts | 328° |
| 2026-05-07 06:44 | 43.00678 | 11.40036 | 33592 ft | 443 kts | 327° |
| 2026-05-07 06:44 | 43.03483 | 11.38304 | 34136 ft | 442 kts | 327° |
| 2026-05-07 06:45 | 43.06282 | 11.36572 | 34606 ft | 441 kts | 327° |
| 2026-05-07 06:45 | 43.09064 | 11.34845 | 35066 ft | 439 kts | 327° |
| 2026-05-07 06:45 | 43.11844 | 11.33113 | 35504 ft | 438 kts | 327° |
| 2026-05-07 06:45 | 43.14580 | 11.31404 | 35926 ft | 437 kts | 327° |
| 2026-05-07 06:46 | 43.17345 | 11.29674 | 36335 ft | 437 kts | 327° |
| 2026-05-07 06:46 | 43.20144 | 11.27923 | 36735 ft | 436 kts | 328° |
| 2026-05-07 06:46 | 43.22864 | 11.26221 | 37111 ft | 436 kts | 328° |
| 2026-05-07 06:46 | 43.25622 | 11.24495 | 37464 ft | 435 kts | 328° |
| 2026-05-07 06:47 | 43.28377 | 11.22769 | 37812 ft | 435 kts | 328° |
| 2026-05-07 06:47 | 43.31132 | 11.21038 | 37990 ft | 436 kts | 328° |
| 2026-05-07 06:47 | 43.35727 | 11.18119 | 38011 ft | 434 kts | 328° |
| 2026-05-07 06:48 | 43.41206 | 11.14627 | 38000 ft | 434 kts | 328° |
| 2026-05-07 06:48 | 43.46700 | 11.11152 | 38004 ft | 435 kts | 328° |
| 2026-05-07 06:49 | 43.52215 | 11.07689 | 38019 ft | 436 kts | 328° |
| 2026-05-07 06:49 | 43.57728 | 11.04207 | 38016 ft | 436 kts | 328° |
| 2026-05-07 06:50 | 43.63252 | 11.00704 | 38041 ft | 437 kts | 328° |
| 2026-05-07 06:50 | 43.68773 | 10.97182 | 38036 ft | 438 kts | 328° |
| 2026-05-07 06:51 | 43.74272 | 10.93688 | 38043 ft | 438 kts | 328° |
| 2026-05-07 06:51 | 43.79815 | 10.90171 | 38044 ft | 439 kts | 328° |
| 2026-05-07 06:52 | 43.85126 | 10.86791 | 38045 ft | 439 kts | 328° |
| 2026-05-07 06:52 | 43.90673 | 10.83244 | 38041 ft | 439 kts | 328° |
| 2026-05-07 06:53 | 43.96208 | 10.79668 | 38032 ft | 439 kts | 328° |
| 2026-05-07 06:53 | 44.01744 | 10.76076 | 38029 ft | 439 kts | 328° |
| 2026-05-07 06:54 | 44.07286 | 10.72512 | 38031 ft | 439 kts | 329° |
| 2026-05-07 06:54 | 44.12833 | 10.68955 | 38030 ft | 439 kts | 329° |
| 2026-05-07 06:55 | 44.18375 | 10.65379 | 38034 ft | 439 kts | 329° |
| 2026-05-07 06:55 | 44.23909 | 10.61800 | 38028 ft | 439 kts | 329° |
| 2026-05-07 06:56 | 44.29447 | 10.58206 | 38026 ft | 439 kts | 329° |
| 2026-05-07 06:56 | 44.34983 | 10.54613 | 38028 ft | 439 kts | 329° |
| 2026-05-07 06:57 | 44.40515 | 10.51019 | 38022 ft | 439 kts | 329° |
| 2026-05-07 06:57 | 44.46052 | 10.47413 | 38023 ft | 439 kts | 329° |
| 2026-05-07 06:58 | 44.51585 | 10.43799 | 38010 ft | 439 kts | 329° |
| 2026-05-07 06:58 | 44.57109 | 10.40162 | 38011 ft | 439 kts | 329° |
| 2026-05-07 06:59 | 44.62635 | 10.36526 | 38007 ft | 439 kts | 329° |
| 2026-05-07 06:59 | 44.68160 | 10.32886 | 38000 ft | 439 kts | 329° |
| 2026-05-07 07:00 | 44.73687 | 10.29238 | 38003 ft | 439 kts | 329° |
| 2026-05-07 07:00 | 44.79222 | 10.25594 | 38001 ft | 439 kts | 329° |
| 2026-05-07 07:01 | 44.84756 | 10.21943 | 37995 ft | 439 kts | 329° |
| 2026-05-07 07:01 | 44.90286 | 10.18274 | 37999 ft | 439 kts | 329° |
| 2026-05-07 07:02 | 44.95778 | 10.14606 | 37998 ft | 440 kts | 329° |
| 2026-05-07 07:02 | 45.01310 | 10.10914 | 37998 ft | 440 kts | 329° |
| 2026-05-07 07:03 | 45.06842 | 10.07219 | 38000 ft | 440 kts | 329° |
| 2026-05-07 07:03 | 45.12372 | 10.03512 | 38006 ft | 440 kts | 329° |
| 2026-05-07 07:04 | 45.17909 | 9.99797 | 37989 ft | 440 kts | 329° |
| 2026-05-07 07:04 | 45.23444 | 9.96083 | 37988 ft | 440 kts | 329° |
| 2026-05-07 07:05 | 45.28986 | 9.92354 | 37990 ft | 441 kts | 329° |
| 2026-05-07 07:05 | 45.34520 | 9.88610 | 37991 ft | 441 kts | 329° |
| 2026-05-07 07:06 | 45.40057 | 9.84875 | 38030 ft | 442 kts | 329° |
| 2026-05-07 07:06 | 45.45708 | 9.81043 | 37997 ft | 458 kts | 329° |
| 2026-05-07 07:07 | 45.51544 | 9.77069 | 37997 ft | 471 kts | 329° |
| 2026-05-07 07:07 | 45.57539 | 9.72981 | 38003 ft | 485 kts | 330° |
| 2026-05-07 07:08 | 45.60600 | 9.70896 | 38161 ft | 485 kts | 330° |
| 2026-05-07 07:08 | 45.63600 | 9.68861 | 38680 ft | 471 kts | 330° |
| 2026-05-07 07:08 | 45.66499 | 9.66900 | 39073 ft | 452 kts | 330° |
| 2026-05-07 07:08 | 45.69321 | 9.64986 | 39107 ft | 446 kts | 330° |
| 2026-05-07 07:09 | 45.72135 | 9.63058 | 38303 ft | 452 kts | 329° |
| 2026-05-07 07:09 | 45.74943 | 9.61117 | 38021 ft | 444 kts | 329° |
| 2026-05-07 07:09 | 45.80458 | 9.57303 | 37993 ft | 439 kts | 329° |
| 2026-05-07 07:10 | 45.85962 | 9.53500 | 37993 ft | 438 kts | 329° |
| 2026-05-07 07:10 | 45.91453 | 9.49717 | 37995 ft | 437 kts | 329° |
| 2026-05-07 07:11 | 45.96935 | 9.45928 | 37992 ft | 437 kts | 329° |
| 2026-05-07 07:11 | 46.02401 | 9.42130 | 37984 ft | 437 kts | 329° |
| 2026-05-07 07:12 | 46.07860 | 9.38336 | 37976 ft | 434 kts | 329° |
| 2026-05-07 07:12 | 46.13305 | 9.34546 | 37540 ft | 439 kts | 329° |
| 2026-05-07 07:13 | 46.16108 | 9.32580 | 36098 ft | 458 kts | 330° |
| 2026-05-07 07:13 | 46.18943 | 9.30593 | 35349 ft | 459 kts | 330° |
| 2026-05-07 07:13 | 46.21898 | 9.28522 | 34148 ft | 471 kts | 330° |
| 2026-05-07 07:13 | 46.24868 | 9.26444 | 33062 ft | 477 kts | 330° |
| 2026-05-07 07:14 | 46.27819 | 9.24380 | 32051 ft | 478 kts | 330° |
| 2026-05-07 07:14 | 46.30822 | 9.22282 | 31095 ft | 479 kts | 331° |
| 2026-05-07 07:14 | 46.33862 | 9.20157 | 30136 ft | 479 kts | 331° |
| 2026-05-07 07:14 | 46.36859 | 9.18052 | 28893 ft | 479 kts | 331° |
| 2026-05-07 07:15 | 46.39861 | 9.15935 | 27626 ft | 479 kts | 332° |
| 2026-05-07 07:15 | 46.42857 | 9.13817 | 26358 ft | 480 kts | 332° |
| 2026-05-07 07:15 | 46.45818 | 9.11719 | 25109 ft | 480 kts | 332° |
| 2026-05-07 07:15 | 46.48804 | 9.09605 | 24214 ft | 472 kts | 333° |
| 2026-05-07 07:16 | 46.51762 | 9.07514 | 23397 ft | 462 kts | 333° |
| 2026-05-07 07:16 | 46.54590 | 9.05515 | 22441 ft | 455 kts | 333° |
| 2026-05-07 07:16 | 46.57413 | 9.03520 | 21550 ft | 448 kts | 333° |
| 2026-05-07 07:16 | 46.60172 | 9.01567 | 21172 ft | 432 kts | 333° |
| 2026-05-07 07:17 | 46.62818 | 8.99687 | 21011 ft | 414 kts | 332° |
| 2026-05-07 07:17 | 46.65334 | 8.97898 | 21044 ft | 392 kts | 332° |
| 2026-05-07 07:17 | 46.67730 | 8.96192 | 21046 ft | 375 kts | 332° |
| 2026-05-07 07:17 | 46.70028 | 8.94552 | 20700 ft | 366 kts | 332° |
| 2026-05-07 07:18 | 46.72355 | 8.92885 | 19620 ft | 380 kts | 332° |
| 2026-05-07 07:18 | 46.74764 | 8.91155 | 18541 ft | 393 kts | 332° |
| 2026-05-07 07:18 | 46.77258 | 8.89362 | 17313 ft | 406 kts | 332° |
| 2026-05-07 07:18 | 46.79786 | 8.87544 | 16971 ft | 396 kts | 332° |
| 2026-05-07 07:19 | 46.82192 | 8.85821 | 17050 ft | 376 kts | 332° |
| 2026-05-07 07:19 | 46.84487 | 8.84182 | 17021 ft | 358 kts | 332° |
| 2026-05-07 07:19 | 46.86743 | 8.82567 | 16025 ft | 368 kts | 332° |
| 2026-05-07 07:19 | 46.89081 | 8.80886 | 14928 ft | 381 kts | 332° |
| 2026-05-07 07:20 | 46.91465 | 8.79171 | 14357 ft | 379 kts | 332° |
| 2026-05-07 07:20 | 46.93791 | 8.77504 | 14145 ft | 365 kts | 333° |
| 2026-05-07 07:20 | 46.96140 | 8.76272 | 14029 ft | 352 kts | 344° |
| 2026-05-07 07:20 | 46.98499 | 8.75722 | 14050 ft | 335 kts | 352° |
| 2026-05-07 07:21 | 47.00766 | 8.75376 | 14052 ft | 320 kts | 352° |
| 2026-05-07 07:21 | 47.02208 | 8.75148 | 14046 ft | 311 kts | 351° |
| 2026-05-07 07:21 | 47.02426 | 8.75113 | 14048 ft | 310 kts | 351° |
| 2026-05-07 07:21 | 47.04515 | 8.74779 | 14045 ft | 306 kts | 351° |
| 2026-05-07 07:22 | 47.06647 | 8.74435 | 13602 ft | 313 kts | 351° |
| 2026-05-07 07:22 | 47.08856 | 8.73987 | 12611 ft | 328 kts | 348° |
| 2026-05-07 07:22 | 47.11158 | 8.73403 | 11566 ft | 343 kts | 347° |
| 2026-05-07 07:22 | 47.13545 | 8.72740 | 10606 ft | 353 kts | 346° |
| 2026-05-07 07:23 | 47.15932 | 8.72068 | 10234 ft | 344 kts | 346° |
| 2026-05-07 07:23 | 47.18236 | 8.71432 | 10083 ft | 329 kts | 346° |
| 2026-05-07 07:23 | 47.20434 | 8.70838 | 10034 ft | 313 kts | 346° |
| 2026-05-07 07:23 | 47.22523 | 8.70285 | 10047 ft | 297 kts | 346° |
| 2026-05-07 07:24 | 47.24523 | 8.69760 | 10048 ft | 289 kts | 346° |
| 2026-05-07 07:24 | 47.26486 | 8.69182 | 10052 ft | 286 kts | 341° |
| 2026-05-07 07:24 | 47.28330 | 8.68161 | 10053 ft | 282 kts | 330° |
| 2026-05-07 07:24 | 47.30107 | 8.66925 | 10054 ft | 282 kts | 331° |
| 2026-05-07 07:25 | 47.33645 | 8.64506 | 10061 ft | 282 kts | 331° |
| 2026-05-07 07:25 | 47.35427 | 8.63291 | 10056 ft | 282 kts | 331° |
| 2026-05-07 07:25 | 47.37206 | 8.62059 | 10055 ft | 282 kts | 328° |
| 2026-05-07 07:26 | 47.38889 | 8.60600 | 10060 ft | 281 kts | 325° |
| 2026-05-07 07:26 | 47.40561 | 8.59119 | 10058 ft | 280 kts | 325° |
| 2026-05-07 07:26 | 47.42234 | 8.57643 | 10059 ft | 280 kts | 325° |
| 2026-05-07 07:26 | 47.43810 | 8.55981 | 10057 ft | 277 kts | 314° |
| 2026-05-07 07:27 | 47.45042 | 8.53833 | 10059 ft | 273 kts | 300° |
| 2026-05-07 07:27 | 47.45882 | 8.51332 | 10054 ft | 271 kts | 287° |
| 2026-05-07 07:27 | 47.46295 | 8.48629 | 10056 ft | 270 kts | 276° |
| 2026-05-07 07:27 | 47.46551 | 8.45885 | 10055 ft | 270 kts | 277° |
| 2026-05-07 07:28 | 47.46815 | 8.43144 | 10053 ft | 270 kts | 277° |
| 2026-05-07 07:28 | 47.47082 | 8.40399 | 10057 ft | 270 kts | 277° |
| 2026-05-07 07:28 | 47.47350 | 8.37656 | 10053 ft | 270 kts | 277° |
| 2026-05-07 07:28 | 47.47616 | 8.34914 | 10053 ft | 270 kts | 277° |
| 2026-05-07 07:29 | 47.47881 | 8.32167 | 10052 ft | 270 kts | 277° |
| 2026-05-07 07:29 | 47.48144 | 8.29416 | 10048 ft | 270 kts | 277° |
| 2026-05-07 07:29 | 47.48407 | 8.26668 | 10049 ft | 271 kts | 277° |
| 2026-05-07 07:29 | 47.48671 | 8.23917 | 10043 ft | 270 kts | 277° |
| 2026-05-07 07:30 | 47.48933 | 8.21170 | 10043 ft | 270 kts | 277° |
| 2026-05-07 07:30 | 47.49189 | 8.18422 | 10037 ft | 270 kts | 277° |
| 2026-05-07 07:30 | 47.49446 | 8.15666 | 10041 ft | 271 kts | 277° |
| 2026-05-07 07:30 | 47.49703 | 8.12911 | 10040 ft | 271 kts | 277° |
| 2026-05-07 07:31 | 47.49963 | 8.10148 | 10036 ft | 271 kts | 277° |
| 2026-05-07 07:31 | 47.50507 | 8.07490 | 10037 ft | 274 kts | 299° |
| 2026-05-07 07:31 | 47.51854 | 8.05501 | 10035 ft | 280 kts | 328° |
| 2026-05-07 07:31 | 47.53742 | 8.04669 | 9447 ft | 293 kts | 355° |
| 2026-05-07 07:32 | 47.55754 | 8.05399 | 8415 ft | 309 kts | 29° |
| 2026-05-07 07:32 | 47.57162 | 8.07675 | 8085 ft | 295 kts | 64° |
| 2026-05-07 07:32 | 47.57503 | 8.10529 | 7892 ft | 276 kts | 96° |
| 2026-05-07 07:32 | 47.56937 | 8.13161 | 7459 ft | 267 kts | 119° |
| 2026-05-07 07:33 | 47.56116 | 8.15613 | 7071 ft | 264 kts | 115° |
| 2026-05-07 07:33 | 47.55661 | 8.18264 | 7010 ft | 266 kts | 96° |
| 2026-05-07 07:33 | 47.55763 | 8.20935 | 6645 ft | 260 kts | 77° |
| 2026-05-07 07:33 | 47.56366 | 8.23349 | 6515 ft | 232 kts | 63° |
| 2026-05-07 07:34 | 47.56993 | 8.25386 | 6100 ft | 209 kts | 64° |
| 2026-05-07 07:34 | 47.57563 | 8.27289 | 5502 ft | 201 kts | 64° |
| 2026-05-07 07:34 | 47.58129 | 8.29174 | 4811 ft | 199 kts | 65° |
| 2026-05-07 07:34 | 47.58689 | 8.31037 | 4167 ft | 196 kts | 65° |
| 2026-05-07 07:35 | 47.59207 | 8.32769 | 4027 ft | 171 kts | 65° |
| 2026-05-07 07:35 | 47.59660 | 8.34285 | 4005 ft | 155 kts | 65° |
| 2026-05-07 07:35 | 47.59879 | 8.35814 | 4018 ft | 151 kts | 90° |
| 2026-05-07 07:35 | 47.59691 | 8.37313 | 4025 ft | 147 kts | 114° |
| 2026-05-07 07:36 | 47.59161 | 8.38574 | 4027 ft | 143 kts | 137° |
| 2026-05-07 07:36 | 47.58437 | 8.39581 | 4033 ft | 143 kts | 142° |
| 2026-05-07 07:36 | 47.57711 | 8.40582 | 4036 ft | 143 kts | 142° |
| 2026-05-07 07:36 | 47.56985 | 8.41581 | 4031 ft | 142 kts | 142° |
| 2026-05-07 07:37 | 47.56257 | 8.42581 | 4034 ft | 143 kts | 142° |
| 2026-05-07 07:37 | 47.55529 | 8.43581 | 4031 ft | 143 kts | 142° |
| 2026-05-07 07:37 | 47.55048 | 8.44241 | 4030 ft | 143 kts | 142° |
| 2026-05-07 07:37 | 47.54067 | 8.45585 | 3685 ft | 148 kts | 142° |
| 2026-05-07 07:38 | 47.53549 | 8.46293 | 3244 ft | 157 kts | 141° |
| 2026-05-07 07:38 | 47.52768 | 8.47367 | 3013 ft | 145 kts | 141° |
| 2026-05-07 07:38 | 47.52055 | 8.48403 | 2848 ft | 141 kts | 139° |
| 2026-05-07 07:38 | 47.51371 | 8.49413 | 2676 ft | 137 kts | 137° |
| 2026-05-07 07:39 | 47.50717 | 8.50424 | 2455 ft | 135 kts | 139° |
| 2026-05-07 07:39 | 47.50031 | 8.51359 | 2108 ft | 133 kts | 144° |
| 2026-05-07 07:39 | 47.49326 | 8.52228 | 1800 ft | 131 kts | 142° |
| 2026-05-07 07:39 | 47.48636 | 8.53088 | 1581 ft | 129 kts | 143° |
| 2026-05-07 07:40 | 47.47960 | 8.53948 | 1415 ft | 127 kts | 143° |
| 2026-05-07 07:40 | 47.47314 | 8.54831 | 1389 ft | 117 kts | 133° |
| 2026-05-07 07:40 | 47.46864 | 8.55442 | 1395 ft | 62 kts | 137° |
| 2026-05-07 07:40 | 47.46635 | 8.55663 | 1394 ft | 18 kts | 164° |
| 2026-05-07 07:41 | 47.46544 | 8.55698 | 1404 ft | 8 kts | 166° |
| 2026-05-07 07:41 | 47.46494 | 8.55715 | 1402 ft | 7 kts | 169° |
| 2026-05-07 07:41 | 47.46451 | 8.55728 | 1403 ft | 6 kts | 168° |
| 2026-05-07 07:41 | 47.46417 | 8.55743 | 1402 ft | 5 kts | 161° |
| 2026-05-07 07:42 | 47.46356 | 8.55796 | 1403 ft | 17 kts | 136° |
| 2026-05-07 07:42 | 47.46276 | 8.55901 | 1406 ft | 13 kts | 137° |
| 2026-05-07 07:42 | 47.46223 | 8.55978 | 1409 ft | 9 kts | 136° |
| 2026-05-07 07:42 | 47.46172 | 8.56044 | 1407 ft | 9 kts | 141° |
| 2026-05-07 07:43 | 47.46130 | 8.56102 | 1408 ft | 10 kts | 135° |
| 2026-05-07 07:43 | 47.46067 | 8.56191 | 1409 ft | 15 kts | 137° |
| 2026-05-07 07:43 | 47.45981 | 8.56303 | 1412 ft | 16 kts | 143° |
| 2026-05-07 07:43 | 47.45913 | 8.56396 | 1415 ft | 11 kts | 135° |
| 2026-05-07 07:44 | 47.45873 | 8.56455 | 1421 ft | 6 kts | 136° |
| 2026-05-07 07:44 | 47.45854 | 8.56481 | 1419 ft | 3 kts | 136° |
| 2026-05-07 07:44 | 47.45807 | 8.56524 | 1419 ft | 5 kts | 194° |
| 2026-05-07 07:44 | 47.45804 | 8.56503 | 1419 ft | 3 kts | 271° |
| 2026-05-07 07:45 | 47.45812 | 8.56373 | 1416 ft | 16 kts | 271° |
| 2026-05-07 07:45 | 47.45751 | 8.56278 | 1415 ft | 10 kts | 175° |
| 2026-05-07 07:45 | 47.45679 | 8.56276 | 1417 ft | 11 kts | 186° |
| 2026-05-07 07:45 | 47.45609 | 8.56263 | 1413 ft | 9 kts | 187° |
| 2026-05-07 07:46 | 47.45535 | 8.56251 | 1410 ft | 15 kts | 186° |
| 2026-05-07 07:46 | 47.45468 | 8.56181 | 1407 ft | 6 kts | 253° |
| 2026-05-07 07:46 | 47.45473 | 8.56147 | 1407 ft | 3 kts | 288° |
| 2026-05-07 07:46 | 47.45486 | 8.56077 | 1407 ft | 9 kts | 274° |
| 2026-05-07 07:47 | 47.45493 | 8.55983 | 1407 ft | 11 kts | 277° |
| 2026-05-07 07:47 | 47.45499 | 8.55828 | 1411 ft | 18 kts | 265° |
| 2026-05-07 07:47 | 47.45465 | 8.55775 | 1411 ft | 3 kts | 177° |
| 2026-05-07 07:47 | 47.45440 | 8.55802 | 1409 ft | 7 kts | 155° |
| 2026-05-07 07:48 | 47.45421 | 8.55802 | 1407 ft | 0 kts | 182° |